Time;durP1;ratioP1;P1;durP2;ratioP2;P2;SDS_P1;SDS_P2;PMS_P1;PMS_P2;Temp;Humidity;BMP_temperature;BMP_pressure;BME280_temperature;BME280_humidity;BME280_pressure;Samples;Min_cycle;Max_cycle;Signal;HPM_P1;HPM_P2
2023/04/05 00:00:15;;;;;;;7.95;6.22;;;4.00;95.10;;;;;;4983804;28;20121;-48
2023/04/05 00:03:01;;;;;;;9.52;6.65;;;4.00;95.20;;;;;;4993619;28;20030;-54
2023/04/05 00:05:48;;;;;;;9.95;6.82;;;3.90;96.10;;;;;;4995987;28;20019;-53
2023/04/05 00:08:34;;;;;;;9.43;6.57;;;3.80;96.80;;;;;;4991435;28;20034;-49
2023/04/05 00:11:21;;;;;;;9.55;6.65;;;3.80;97.10;;;;;;4994268;28;20025;-49
2023/04/05 00:14:07;;;;;;;9.38;6.78;;;3.80;97.30;;;;;;4979246;28;20069;-55
2023/04/05 00:16:53;;;;;;;10.20;6.93;;;3.80;97.80;;;;;;4988031;28;20050;-50
2023/04/05 00:19:41;;;;;;;8.50;6.45;;;3.80;98.20;;;;;;4994686;28;20065;-54
2023/04/05 00:22:30;;;;;;;7.63;6.70;;;3.80;98.50;;;;;;4994071;28;20487;-51
2023/04/05 00:25:17;;;;;;;8.35;6.53;;;3.80;98.50;;;;;;4967127;28;20030;-50
2023/04/05 00:28:03;;;;;;;9.45;6.88;;;3.90;98.70;;;;;;4993644;28;20030;-49
2023/04/05 00:30:51;;;;;;;11.05;6.80;;;3.90;98.80;;;;;;4994039;28;20026;-50
2023/04/05 00:33:37;;;;;;;9.20;6.93;;;3.90;99.00;;;;;;4993914;28;20018;-49
2023/04/05 00:36:23;;;;;;;11.60;6.90;;;3.90;98.70;;;;;;4979985;28;20467;-52
2023/04/05 00:39:09;;;;;;;9.82;7.45;;;3.90;98.30;;;;;;4994382;28;20407;-54
2023/04/05 00:41:55;;;;;;;8.85;6.60;;;3.90;98.30;;;;;;4992872;28;20068;-48
2023/04/05 00:44:41;;;;;;;9.15;6.63;;;3.90;98.50;;;;;;4992791;28;20038;-51
2023/04/05 00:47:27;;;;;;;10.68;7.05;;;3.90;98.70;;;;;;4992542;28;20545;-48
2023/04/05 00:50:14;;;;;;;9.43;7.22;;;3.90;99.00;;;;;;4993576;28;20030;-48
2023/04/05 00:53:01;;;;;;;8.85;6.75;;;3.80;99.20;;;;;;4993768;28;20566;-50
2023/04/05 00:55:48;;;;;;;10.18;7.40;;;3.70;99.10;;;;;;4992706;28;20062;-48
2023/04/05 00:58:34;;;;;;;12.55;6.72;;;3.60;98.90;;;;;;4992721;28;20029;-47
2023/04/05 01:01:22;;;;;;;9.85;6.97;;;3.60;98.70;;;;;;4993957;28;20037;-49
2023/04/05 01:04:10;;;;;;;8.73;6.45;;;3.50;98.20;;;;;;4993391;28;20038;-47
2023/04/05 01:07:24;;;;;;;12.15;7.40;;;3.60;98.10;;;;;;4992896;28;20073;-50
2023/04/05 01:10:13;;;;;;;9.98;7.10;;;3.50;97.90;;;;;;4993440;28;20053;-53
2023/04/05 01:12:59;;;;;;;9.52;6.82;;;3.40;98.00;;;;;;4993178;28;20034;-49
2023/04/05 01:15:45;;;;;;;8.98;6.30;;;3.30;97.60;;;;;;4994217;28;20499;-50
2023/04/05 01:18:35;;;;;;;8.20;6.53;;;3.30;97.60;;;;;;4991921;28;20045;-51
2023/04/05 01:21:57;;;;;;;8.73;6.78;;;3.30;97.30;;;;;;4994264;28;20026;-50
2023/04/05 01:25:20;;;;;;;9.20;6.47;;;3.30;97.20;;;;;;4993397;28;20050;-48
2023/04/05 01:28:31;;;;;;;8.68;6.53;;;3.30;97.30;;;;;;4992430;28;20069;-50
2023/04/05 01:31:40;;;;;;;9.00;6.68;;;3.30;97.20;;;;;;4993029;28;20120;-48
2023/04/05 01:34:40;;;;;;;8.93;6.90;;;3.40;97.30;;;;;;4993829;28;20027;-49
2023/04/05 01:37:31;;;;;;;8.40;5.97;;;3.30;97.50;;;;;;4993324;28;20015;-50
2023/04/05 01:40:18;;;;;;;9.95;7.20;;;3.30;97.70;;;;;;4980112;28;20495;-47
2023/04/05 01:43:14;;;;;;;8.15;6.95;;;3.30;98.00;;;;;;4994562;28;20030;-48
2023/04/05 01:46:00;;;;;;;14.38;8.40;;;3.40;98.10;;;;;;4994441;28;20061;-48
2023/04/05 01:48:46;;;;;;;9.77;7.20;;;3.40;98.20;;;;;;4979339;28;20023;-51
2023/04/05 01:51:32;;;;;;;17.42;10.02;;;3.40;97.80;;;;;;4991410;28;20034;-55
2023/04/05 01:54:18;;;;;;;16.05;9.55;;;3.30;97.70;;;;;;4992219;28;20022;-52
2023/04/05 01:57:05;;;;;;;12.32;7.80;;;3.20;97.60;;;;;;4990995;28;20026;-50
2023/04/05 01:59:50;;;;;;;11.38;7.30;;;3.20;97.70;;;;;;4992494;28;20058;-51
2023/04/05 02:02:36;;;;;;;9.93;7.47;;;3.30;97.80;;;;;;4978487;28;20026;-50
2023/04/05 02:05:22;;;;;;;8.60;6.65;;;3.30;97.70;;;;;;4978340;28;20027;-48
2023/04/05 02:08:08;;;;;;;11.40;7.05;;;3.40;97.60;;;;;;4978086;28;20443;-46
2023/04/05 02:10:54;;;;;;;8.23;6.72;;;3.60;97.10;;;;;;4991134;28;20451;-47
2023/04/05 02:13:40;;;;;;;10.48;7.28;;;3.50;97.30;;;;;;4991016;28;20022;-46
2023/04/05 02:16:26;;;;;;;11.63;7.72;;;3.40;97.50;;;;;;4990705;28;20023;-47
2023/04/05 02:19:14;;;;;;;13.60;7.55;;;3.30;97.40;;;;;;4990879;28;20407;-47
2023/04/05 02:22:00;;;;;;;11.15;7.80;;;3.20;97.70;;;;;;4992173;28;20058;-47
2023/04/05 02:24:46;;;;;;;14.65;9.00;;;3.30;97.70;;;;;;4990952;28;20569;-48
2023/04/05 02:27:32;;;;;;;17.90;10.60;;;3.40;97.60;;;;;;4990386;28;20611;-47
2023/04/05 02:30:19;;;;;;;19.77;10.55;;;3.40;97.40;;;;;;4992117;28;20046;-48
2023/04/05 02:33:08;;;;;;;12.15;7.70;;;3.50;97.10;;;;;;4992430;28;20415;-49
2023/04/05 02:35:54;;;;;;;12.20;8.68;;;3.50;96.30;;;;;;4992385;28;20034;-50
2023/04/05 02:38:40;;;;;;;14.57;8.82;;;3.40;96.60;;;;;;4991841;28;20450;-50
2023/04/05 02:41:26;;;;;;;11.73;7.93;;;3.30;96.90;;;;;;4992400;28;20486;-47
2023/04/05 02:44:12;;;;;;;11.85;7.50;;;3.40;97.00;;;;;;4991908;28;20030;-53
2023/04/05 02:46:58;;;;;;;14.48;7.82;;;3.40;96.90;;;;;;4990877;28;20019;-47
2023/04/05 02:49:44;;;;;;;12.65;8.18;;;3.40;97.00;;;;;;4990337;28;20027;-52
2023/04/05 02:52:31;;;;;;;9.43;7.38;;;3.30;97.00;;;;;;4990472;28;20085;-50
2023/04/05 02:55:17;;;;;;;13.68;7.78;;;3.30;97.10;;;;;;4991801;28;20086;-51
2023/04/05 02:58:03;;;;;;;11.40;8.05;;;3.40;97.30;;;;;;4988133;28;20086;-48
2023/04/05 03:00:50;;;;;;;12.07;7.20;;;3.40;97.20;;;;;;4998514;28;20410;-49
2023/04/05 03:03:36;;;;;;;8.95;6.68;;;3.50;97.20;;;;;;4999705;28;20037;-50
2023/04/05 03:06:22;;;;;;;10.95;7.85;;;3.50;97.00;;;;;;4993221;28;20427;-52
2023/04/05 03:09:09;;;;;;;12.13;8.00;;;3.60;97.10;;;;;;4991296;28;20023;-53
2023/04/05 03:11:55;;;;;;;10.43;7.88;;;3.60;97.10;;;;;;4995650;28;20508;-49
2023/04/05 03:14:41;;;;;;;12.07;8.63;;;3.50;97.40;;;;;;4996035;28;20030;-55
2023/04/05 03:17:27;;;;;;;10.07;7.15;;;3.50;97.20;;;;;;4995282;28;20113;-54
2023/04/05 03:20:13;;;;;;;9.55;6.95;;;3.40;97.00;;;;;;4998792;28;20022;-54
2023/04/05 03:22:59;;;;;;;14.63;7.57;;;3.40;97.30;;;;;;4994091;28;20030;-55
2023/04/05 03:25:45;;;;;;;9.93;7.30;;;3.30;97.10;;;;;;4995687;28;20058;-52
2023/04/05 03:28:31;;;;;;;10.13;7.47;;;3.30;97.50;;;;;;4995548;28;20023;-52
2023/04/05 03:31:17;;;;;;;11.75;6.85;;;3.20;97.40;;;;;;4995151;28;20058;-55
2023/04/05 03:34:03;;;;;;;12.43;7.95;;;3.20;97.00;;;;;;4994493;28;20030;-53
2023/04/05 03:36:49;;;;;;;14.02;7.65;;;3.00;97.60;;;;;;4995380;28;20022;-50
2023/04/05 03:39:35;;;;;;;11.40;7.63;;;3.00;98.00;;;;;;4995205;28;20102;-50
2023/04/05 03:42:21;;;;;;;10.02;7.68;;;3.10;98.00;;;;;;4995662;28;20142;-54
2023/04/05 03:45:08;;;;;;;8.93;7.15;;;3.10;98.00;;;;;;4993768;28;20042;-52
2023/04/05 03:47:54;;;;;;;9.90;7.03;;;3.00;97.70;;;;;;4994207;28;20054;-50
2023/04/05 03:50:40;;;;;;;8.65;6.63;;;3.10;97.40;;;;;;4981318;28;20037;-49
2023/04/05 03:53:28;;;;;;;8.98;6.85;;;3.00;97.70;;;;;;4993419;28;20388;-49
2023/04/05 03:56:14;;;;;;;13.02;6.78;;;3.00;97.60;;;;;;5002227;28;20026;-51
2023/04/05 03:59:00;;;;;;;14.43;8.10;;;3.10;97.90;;;;;;5002488;28;20037;-50
2023/04/05 04:01:46;;;;;;;13.40;7.97;;;3.10;97.60;;;;;;5013220;28;20121;-50
2023/04/05 04:04:32;;;;;;;10.32;6.60;;;2.90;97.30;;;;;;5012867;28;20528;-49
2023/04/05 04:07:18;;;;;;;11.00;6.82;;;2.90;97.40;;;;;;5012978;28;20109;-53
2023/04/05 04:10:05;;;;;;;13.40;6.70;;;3.00;97.60;;;;;;5013381;28;20029;-51
2023/04/05 04:12:51;;;;;;;9.15;5.80;;;3.10;97.50;;;;;;5013254;28;20022;-51
2023/04/05 04:15:37;;;;;;;9.93;6.40;;;3.10;97.30;;;;;;5012995;28;20049;-49
2023/04/05 04:18:23;;;;;;;11.05;6.25;;;3.10;96.90;;;;;;5012356;28;20104;-50
2023/04/05 04:21:09;;;;;;;9.95;6.28;;;3.10;97.10;;;;;;5012044;28;20064;-51
2023/04/05 04:23:56;;;;;;;26.00;15.43;;;3.10;97.30;;;;;;4999589;28;20033;-52
2023/04/05 04:26:42;;;;;;;18.42;12.00;;;3.20;97.40;;;;;;5013223;28;20034;-51
2023/04/05 04:29:30;;;;;;;12.13;8.35;;;3.20;97.30;;;;;;5013060;28;20022;-52
2023/04/05 04:32:21;;;;;;;14.10;8.57;;;3.30;97.20;;;;;;5012708;28;20447;-52
2023/04/05 04:35:08;;;;;;;19.05;10.77;;;3.40;97.10;;;;;;5013613;28;20026;-56
2023/04/05 04:37:59;;;;;;;10.65;6.55;;;3.40;96.80;;;;;;5011887;28;20022;-53
2023/04/05 04:40:45;;;;;;;10.23;6.10;;;3.40;96.70;;;;;;5012470;28;20026;-52
2023/04/05 04:43:32;;;;;;;9.73;6.72;;;3.40;96.20;;;;;;5012619;28;20030;-53
2023/04/05 04:46:19;;;;;;;9.18;6.20;;;3.40;96.10;;;;;;5012110;28;20030;-53
2023/04/05 04:49:05;;;;;;;8.98;6.15;;;3.40;96.20;;;;;;5013201;28;20084;-50
2023/04/05 04:51:51;;;;;;;9.13;6.43;;;3.40;96.30;;;;;;5011931;28;20038;-50
2023/04/05 04:54:41;;;;;;;12.50;6.15;;;3.30;96.10;;;;;;5011756;28;20510;-52
2023/04/05 04:57:27;;;;;;;11.32;6.65;;;3.30;96.30;;;;;;5011452;28;20038;-49
2023/04/05 05:00:30;;;;;;;10.75;6.85;;;3.40;96.30;;;;;;5015177;28;20045;-54
2023/04/05 05:03:16;;;;;;;8.82;6.03;;;3.30;96.10;;;;;;4977709;28;20062;-52
2023/04/05 05:06:02;;;;;;;11.25;6.32;;;3.20;96.50;;;;;;4992658;28;20483;-54
2023/04/05 05:08:48;;;;;;;10.20;6.15;;;3.20;96.70;;;;;;4992908;28;20085;-53
2023/04/05 05:11:34;;;;;;;12.65;7.63;;;3.30;96.50;;;;;;4978881;28;20515;-55
2023/04/05 05:14:20;;;;;;;11.98;6.40;;;3.30;96.40;;;;;;4992976;28;20030;-52
2023/04/05 05:17:07;;;;;;;10.07;5.90;;;3.20;96.50;;;;;;4991525;28;20558;-53
2023/04/05 05:19:53;;;;;;;10.15;5.95;;;3.30;96.30;;;;;;4979657;28;20579;-50
2023/04/05 05:22:40;;;;;;;10.27;6.60;;;3.30;96.80;;;;;;4992851;28;20037;-50
2023/04/05 05:25:26;;;;;;;13.13;8.25;;;3.30;97.10;;;;;;4979667;28;20027;-52
2023/04/05 05:28:11;;;;;;;11.82;7.28;;;3.30;97.20;;;;;;4992115;28;20109;-48
2023/04/05 05:30:57;;;;;;;9.25;7.00;;;3.30;97.20;;;;;;4993195;28;20126;-48
2023/04/05 05:33:48;;;;;;;9.13;6.07;;;3.30;97.20;;;;;;4995249;28;20034;-54
2023/04/05 05:36:34;;;;;;;10.90;7.53;;;3.30;97.80;;;;;;5001038;28;20734;-52
2023/04/05 05:39:22;;;;;;;11.05;7.15;;;3.30;98.20;;;;;;4988827;28;20120;-48
2023/04/05 05:42:08;;;;;;;9.68;6.70;;;3.30;97.90;;;;;;5003392;28;20037;-53
2023/04/05 05:44:54;;;;;;;13.05;7.65;;;3.40;98.30;;;;;;5011888;28;20456;-51
2023/04/05 05:47:40;;;;;;;9.52;6.65;;;3.50;98.20;;;;;;5011584;28;20045;-52
2023/04/05 05:50:31;;;;;;;11.77;7.72;;;3.60;97.50;;;;;;5012588;28;20041;-52
2023/04/05 05:53:17;;;;;;;13.48;8.00;;;3.70;97.60;;;;;;5011168;28;20034;-49
2023/04/05 05:56:03;;;;;;;10.82;7.30;;;3.70;98.10;;;;;;5011544;28;20113;-51
2023/04/05 05:58:49;;;;;;;10.90;7.57;;;3.60;97.90;;;;;;5011108;28;20097;-53
2023/04/05 06:01:36;;;;;;;19.13;10.98;;;3.60;97.10;;;;;;5010969;28;20026;-52
2023/04/05 06:04:23;;;;;;;11.52;8.27;;;3.60;97.50;;;;;;5011322;28;20029;-52
2023/04/05 06:07:09;;;;;;;11.90;7.35;;;3.60;97.70;;;;;;5010905;28;20026;-53
2023/04/05 06:09:55;;;;;;;9.95;7.18;;;3.70;97.40;;;;;;4998094;28;20061;-56
2023/04/05 06:12:41;;;;;;;10.75;6.70;;;3.70;97.30;;;;;;5011488;28;20174;-52
2023/04/05 06:15:27;;;;;;;12.18;6.85;;;3.60;97.30;;;;;;5011301;28;20030;-56
2023/04/05 06:18:14;;;;;;;10.90;6.72;;;3.70;97.10;;;;;;5010673;28;20033;-55
2023/04/05 06:21:00;;;;;;;9.32;6.75;;;3.80;97.10;;;;;;5011877;28;20034;-52
2023/04/05 06:23:46;;;;;;;10.70;6.53;;;3.90;96.40;;;;;;5010804;28;20030;-52
2023/04/05 06:26:32;;;;;;;9.10;6.53;;;3.90;96.90;;;;;;5010127;28;20026;-52
2023/04/05 06:29:18;;;;;;;11.52;6.80;;;4.00;96.60;;;;;;5008276;22;20717;-55
2023/04/05 06:32:04;;;;;;;9.30;6.82;;;4.00;96.50;;;;;;4982748;28;20055;-53
2023/04/05 06:34:50;;;;;;;9.27;6.25;;;4.20;96.30;;;;;;4993496;28;20045;-49
2023/04/05 06:37:36;;;;;;;10.43;6.78;;;4.20;96.60;;;;;;4984210;28;20173;-55
2023/04/05 06:40:22;;;;;;;14.40;7.28;;;4.40;96.30;;;;;;4987514;28;20548;-55
2023/04/05 06:43:11;;;;;;;13.52;6.93;;;4.50;96.00;;;;;;4975356;28;20576;-56
2023/04/05 06:45:57;;;;;;;11.50;7.22;;;4.50;96.30;;;;;;5010959;28;20085;-56
2023/04/05 06:48:46;;;;;;;10.68;6.15;;;4.60;96.20;;;;;;5008595;28;20022;-57
2023/04/05 06:51:32;;;;;;;9.05;6.63;;;4.70;95.90;;;;;;5010048;28;20030;-57
2023/04/05 06:54:20;;;;;;;10.35;7.28;;;4.60;95.80;;;;;;5010747;28;20033;-57
2023/04/05 06:57:05;;;;;;;11.65;6.95;;;4.50;96.00;;;;;;5009662;28;20025;-55
2023/04/05 06:59:52;;;;;;;11.02;6.85;;;4.50;96.20;;;;;;5010868;28;20033;-57
2023/04/05 07:02:38;;;;;;;8.55;6.43;;;4.60;96.30;;;;;;4995688;28;20070;-58
2023/04/05 07:05:24;;;;;;;12.63;8.05;;;4.80;96.20;;;;;;5009286;28;20504;-56
2023/04/05 07:08:10;;;;;;;12.32;7.53;;;5.00;96.10;;;;;;5008796;28;20030;-56
2023/04/05 07:10:56;;;;;;;9.88;7.07;;;5.10;95.60;;;;;;4993781;28;20030;-57
2023/04/05 07:13:42;;;;;;;13.30;6.72;;;5.20;95.30;;;;;;5008252;28;20033;-56
2023/04/05 07:16:28;;;;;;;13.02;6.97;;;5.10;95.10;;;;;;4980905;28;20033;-54
2023/04/05 07:19:14;;;;;;;13.93;7.10;;;5.00;95.40;;;;;;5006537;28;20037;-52
2023/04/05 07:22:00;;;;;;;9.30;6.70;;;5.10;95.30;;;;;;5015236;28;20033;-53
2023/04/05 07:24:47;;;;;;;10.77;7.18;;;5.20;95.40;;;;;;4977190;28;20033;-54
2023/04/05 07:27:33;;;;;;;9.80;6.82;;;5.20;95.60;;;;;;4990436;28;20041;-54
2023/04/05 07:30:19;;;;;;;10.88;6.53;;;5.30;95.30;;;;;;4993530;28;20038;-51
2023/04/05 07:33:05;;;;;;;10.70;6.15;;;5.50;94.80;;;;;;5007011;28;20041;-53
2023/04/05 07:35:55;;;;;;;14.90;8.90;;;5.60;94.80;;;;;;5012513;28;20081;-52
2023/04/05 07:38:42;;;;;;;12.13;8.00;;;5.80;94.70;;;;;;5011885;28;20394;-51
2023/04/05 07:41:31;;;;;;;11.38;6.80;;;5.70;94.70;;;;;;5008916;28;20034;-52
2023/04/05 07:44:17;;;;;;;13.25;7.63;;;5.80;94.70;;;;;;5008589;28;20038;-56
2023/04/05 07:47:03;;;;;;;7.50;5.10;;;5.90;94.60;;;;;;5008536;28;20030;-49
2023/04/05 07:49:49;;;;;;;9.05;5.57;;;5.80;93.50;;;;;;4995378;28;20030;-50
2023/04/05 07:52:35;;;;;;;7.22;5.13;;;5.80;93.40;;;;;;5010360;28;20483;-52
2023/04/05 07:55:21;;;;;;;8.18;4.60;;;5.90;92.20;;;;;;5009137;28;20105;-55
2023/04/05 07:58:07;;;;;;;7.28;4.60;;;6.00;91.70;;;;;;5011911;28;20017;-55
2023/04/05 08:01:02;;;;;;;7.15;4.57;;;6.00;91.20;;;;;;5014422;28;20072;-54
2023/04/05 08:03:48;;;;;;;9.30;5.57;;;5.90;91.30;;;;;;5014973;28;20018;-54
2023/04/05 08:06:34;;;;;;;10.00;4.65;;;6.10;91.30;;;;;;5000607;28;20033;-51
2023/04/05 08:09:20;;;;;;;8.48;5.05;;;6.20;91.20;;;;;;4996803;28;20085;-54
2023/04/05 08:12:06;;;;;;;7.65;4.75;;;6.40;91.10;;;;;;5008739;28;20691;-53
2023/04/05 08:14:52;;;;;;;7.60;4.88;;;6.60;90.90;;;;;;5012482;28;20041;-54
2023/04/05 08:17:38;;;;;;;12.38;5.63;;;6.60;90.10;;;;;;5012722;28;20453;-52
2023/04/05 08:20:24;;;;;;;8.63;4.70;;;6.60;90.20;;;;;;5011468;28;20117;-50
2023/04/05 08:23:10;;;;;;;7.10;5.20;;;6.70;90.30;;;;;;5010000;28;20038;-51
2023/04/05 08:25:56;;;;;;;4.57;3.78;;;6.70;89.30;;;;;;4996365;28;20058;-51
2023/04/05 08:28:42;;;;;;;7.72;5.18;;;6.80;89.50;;;;;;5013127;28;20018;-53
2023/04/05 08:31:28;;;;;;;7.88;5.22;;;6.90;87.80;;;;;;5012605;28;20045;-52
2023/04/05 08:34:14;;;;;;;9.35;5.05;;;7.10;87.90;;;;;;5011085;28;20617;-54
2023/04/05 08:37:00;;;;;;;6.35;4.47;;;7.20;86.70;;;;;;5008951;28;20034;-54
2023/04/05 08:39:46;;;;;;;8.13;4.38;;;7.10;86.50;;;;;;5013402;28;20056;-55
2023/04/05 08:42:40;;;;;;;6.00;4.28;;;7.20;86.40;;;;;;5023408;28;20073;-50
2023/04/05 08:45:26;;;;;;;6.97;4.15;;;7.30;86.70;;;;;;5011738;28;20053;-49
2023/04/05 08:48:12;;;;;;;8.00;4.28;;;7.30;86.10;;;;;;5012317;28;20022;-53
2023/04/05 08:50:58;;;;;;;7.45;3.97;;;7.10;85.70;;;;;;5013188;28;20021;-53
2023/04/05 08:53:44;;;;;;;8.52;4.65;;;7.10;83.20;;;;;;5013831;28;20026;-50
2023/04/05 08:56:34;;;;;;;7.07;4.05;;;7.30;82.30;;;;;;5010586;28;20038;-51
2023/04/05 08:59:21;;;;;;;5.95;3.75;;;7.20;82.40;;;;;;5012661;28;20410;-53
2023/04/05 09:02:17;;;;;;;6.85;4.78;;;7.20;80.80;;;;;;5008839;28;20050;-51
2023/04/05 09:05:08;;;;;;;6.28;3.67;;;7.30;81.60;;;;;;5014113;28;20533;-52
2023/04/05 09:07:57;;;;;;;7.47;3.92;;;7.20;81.10;;;;;;5007908;28;20037;-51
2023/04/05 09:10:43;;;;;;;7.20;4.20;;;7.30;81.50;;;;;;5011613;28;20022;-54
2023/04/05 09:13:30;;;;;;;5.63;3.47;;;7.50;80.30;;;;;;5008926;28;20022;-52
2023/04/05 09:16:17;;;;;;;8.65;4.13;;;7.70;78.70;;;;;;5012741;28;20038;-54
2023/04/05 09:19:04;;;;;;;6.57;4.13;;;7.90;78.50;;;;;;5006847;28;20026;-55
2023/04/05 09:22:06;;;;;;;7.45;3.97;;;7.80;79.60;;;;;;5001999;28;20034;-55
2023/04/05 09:24:52;;;;;;;5.60;3.80;;;7.70;79.50;;;;;;5010216;28;20053;-51
2023/04/05 09:27:56;;;;;;;5.78;3.78;;;7.90;79.50;;;;;;5006485;28;20026;-51
2023/04/05 09:30:46;;;;;;;5.50;3.70;;;8.20;77.00;;;;;;5006887;28;20409;-53
2023/04/05 09:33:33;;;;;;;5.72;3.60;;;8.10;76.10;;;;;;4999258;28;20018;-56
2023/04/05 09:36:19;;;;;;;5.30;3.75;;;7.80;76.10;;;;;;4997421;28;20034;-56
2023/04/05 09:39:07;;;;;;;6.90;4.32;;;8.10;75.50;;;;;;5006485;28;20034;-53
2023/04/05 09:42:09;;;;;;;6.60;3.47;;;8.10;76.00;;;;;;5004196;28;20497;-56
2023/04/05 09:45:01;;;;;;;6.65;4.05;;;7.70;76.00;;;;;;4981019;28;20069;-52
2023/04/05 09:47:56;;;;;;;6.05;3.58;;;7.50;76.60;;;;;;4996054;28;20041;-54
2023/04/05 09:50:42;;;;;;;6.30;3.90;;;7.50;76.80;;;;;;5010868;28;20014;-56
2023/04/05 09:53:29;;;;;;;5.57;3.83;;;7.50;76.80;;;;;;5009695;28;20029;-53
2023/04/05 09:56:15;;;;;;;7.50;3.80;;;7.40;77.10;;;;;;5011180;28;20056;-56
2023/04/05 09:59:04;;;;;;;5.93;4.18;;;7.40;77.20;;;;;;5013415;28;20473;-54
2023/04/05 10:01:51;;;;;;;6.10;3.65;;;7.50;77.10;;;;;;5012777;28;20064;-55
2023/04/05 10:04:41;;;;;;;8.05;3.90;;;7.60;76.60;;;;;;5022127;28;20051;-54
2023/04/05 10:07:27;;;;;;;6.20;3.83;;;7.60;77.10;;;;;;5011998;28;20030;-51
2023/04/05 10:10:15;;;;;;;6.55;4.07;;;7.60;77.10;;;;;;5021698;28;20112;-52
2023/04/05 10:13:04;;;;;;;7.80;4.30;;;7.50;78.00;;;;;;5013956;28;20030;-53
2023/04/05 10:15:52;;;;;;;8.02;4.05;;;7.50;77.90;;;;;;5007976;28;20149;-49
2023/04/05 10:18:47;;;;;;;6.40;4.40;;;7.50;77.10;;;;;;5007438;28;20030;-53
2023/04/05 10:21:36;;;;;;;6.50;3.58;;;7.60;77.20;;;;;;5006328;28;20037;-52
2023/04/05 10:24:44;;;;;;;6.88;4.00;;;7.60;76.30;;;;;;5016964;28;20033;-50
2023/04/05 10:27:38;;;;;;;4.70;3.35;;;7.60;77.40;;;;;;5010900;28;20054;-57
2023/04/05 10:30:33;;;;;;;6.95;4.00;;;7.60;77.00;;;;;;5013193;28;20045;-56
2023/04/05 10:33:24;;;;;;;6.82;4.03;;;7.70;77.30;;;;;;5015131;28;20486;-56
2023/04/05 10:36:36;;;;;;;6.35;3.95;;;7.70;76.70;;;;;;5014944;28;20048;-51
2023/04/05 10:39:32;;;;;;;6.25;4.35;;;7.60;75.40;;;;;;5003224;28;20379;-57
2023/04/05 10:42:26;;;;;;;5.07;3.45;;;7.50;75.90;;;;;;5014775;28;20029;-57
2023/04/05 10:45:18;;;;;;;6.40;3.35;;;7.70;75.50;;;;;;5019823;28;20025;-53
2023/04/05 10:48:14;;;;;;;6.25;3.72;;;7.80;75.60;;;;;;5010773;28;20513;-55
2023/04/05 10:51:01;;;;;;;8.30;4.10;;;8.10;75.20;;;;;;5011347;28;20068;-54
2023/04/05 10:53:48;;;;;;;5.93;3.63;;;8.20;74.90;;;;;;5009723;28;20553;-57
2023/04/05 10:56:36;;;;;;;7.80;4.05;;;8.20;74.70;;;;;;5010994;28;20065;-55
2023/04/05 10:59:22;;;;;;;6.78;4.03;;;8.30;74.30;;;;;;5013237;28;20056;-56
2023/04/05 11:02:09;;;;;;;7.40;3.78;;;8.10;74.10;;;;;;5011851;28;20092;-53
2023/04/05 11:04:58;;;;;;;10.32;5.10;;;8.10;73.90;;;;;;5011250;28;20521;-55
2023/04/05 11:07:45;;;;;;;7.90;3.83;;;7.70;75.10;;;;;;5010690;28;20033;-58
2023/04/05 11:10:37;;;;;;;5.93;4.20;;;7.90;75.10;;;;;;5011692;28;20053;-58
2023/04/05 11:13:50;;;;;;;7.72;4.13;;;8.00;74.40;;;;;;5011019;28;20022;-57
2023/04/05 11:16:39;;;;;;;6.90;4.18;;;8.10;74.20;;;;;;5010697;28;20030;-58
2023/04/05 11:19:44;;;;;;;6.90;3.88;;;8.10;74.60;;;;;;5011729;28;20165;-55
2023/04/05 11:22:30;;;;;;;5.40;3.95;;;7.90;74.60;;;;;;5011092;28;20030;-58
2023/04/05 11:25:24;;;;;;;5.47;3.85;;;8.00;75.20;;;;;;5012276;28;20026;-55
2023/04/05 11:28:23;;;;;;;7.30;3.80;;;8.00;74.90;;;;;;5010949;28;20033;-55
2023/04/05 11:31:17;;;;;;;5.28;3.80;;;7.90;74.40;;;;;;5014305;28;20410;-55
2023/04/05 11:34:11;;;;;;;8.90;4.47;;;8.10;74.00;;;;;;5000581;28;20030;-54
2023/04/05 11:36:57;;;;;;;6.35;4.13;;;8.20;74.00;;;;;;5015023;28;20205;-57
2023/04/05 11:39:43;;;;;;;5.80;4.10;;;8.40;74.00;;;;;;5001299;28;20026;-53
2023/04/05 11:42:29;;;;;;;5.28;3.75;;;8.50;73.40;;;;;;5015171;28;20037;-55
2023/04/05 11:45:18;;;;;;;8.55;6.13;;;8.60;73.30;;;;;;5015054;28;20529;-56
2023/04/05 11:48:05;;;;;;;5.85;4.30;;;8.80;73.80;;;;;;5013713;28;20489;-57
2023/04/05 11:50:53;;;;;;;5.30;3.80;;;8.40;73.40;;;;;;5000338;28;20073;-56
2023/04/05 11:53:39;;;;;;;6.80;4.07;;;8.10;74.00;;;;;;4999703;28;20030;-56
2023/04/05 11:56:25;;;;;;;8.00;3.90;;;8.20;74.80;;;;;;5014392;28;20026;-56
2023/04/05 11:59:13;;;;;;;9.73;4.53;;;8.30;74.80;;;;;;5014795;28;20030;-55
2023/04/05 12:02:06;;;;;;;4.68;3.67;;;8.60;74.00;;;;;;5014662;28;20029;-58
2023/04/05 12:04:56;;;;;;;6.30;4.40;;;9.00;73.20;;;;;;5014794;28;20410;-55
2023/04/05 12:07:42;;;;;;;6.03;4.15;;;9.10;73.30;;;;;;5014254;28;20066;-54
2023/04/05 12:10:28;;;;;;;5.90;4.10;;;9.10;71.90;;;;;;5014121;28;20030;-54
2023/04/05 12:13:14;;;;;;;5.80;3.95;;;9.20;71.80;;;;;;5014178;28;20026;-57
2023/04/05 12:16:08;;;;;;;10.55;5.28;;;9.60;71.80;;;;;;5013733;28;20040;-57
2023/04/05 12:18:55;;;;;;;5.80;3.47;;;9.60;71.20;;;;;;5014134;28;20037;-57
2023/04/05 12:21:41;;;;;;;5.60;3.60;;;9.00;72.50;;;;;;5013849;28;20037;-54
2023/04/05 12:24:28;;;;;;;6.28;4.03;;;9.00;72.20;;;;;;5013879;28;20502;-54
2023/04/05 12:27:14;;;;;;;5.13;4.10;;;9.30;72.00;;;;;;5013618;28;20177;-57
2023/04/05 12:30:07;;;;;;;5.35;3.95;;;9.60;71.80;;;;;;4999655;28;20070;-58
2023/04/05 12:32:55;;;;;;;7.18;4.35;;;9.50;70.50;;;;;;5013101;28;20097;-57
2023/04/05 12:35:41;;;;;;;5.55;4.13;;;9.70;71.10;;;;;;4999484;28;20041;-53
2023/04/05 12:38:28;;;;;;;8.43;4.95;;;9.90;71.10;;;;;;5013816;28;20084;-55
2023/04/05 12:41:14;;;;;;;8.07;4.50;;;9.70;70.40;;;;;;4998675;28;20037;-59
2023/04/05 12:44:27;;;;;;;8.63;4.20;;;9.90;70.30;;;;;;5012915;28;20580;-53
2023/04/05 12:47:14;;;;;;;4.63;3.60;;;9.80;70.10;;;;;;5013093;28;20111;-52
2023/04/05 12:50:16;;;;;;;5.78;4.30;;;9.60;70.20;;;;;;4999349;28;20034;-56
2023/04/05 12:53:06;;;;;;;5.07;3.90;;;9.80;70.20;;;;;;5013220;28;20018;-56
2023/04/05 12:55:54;;;;;;;7.22;3.80;;;10.20;69.60;;;;;;5012435;28;20597;-54
2023/04/05 12:58:40;;;;;;;8.38;4.00;;;10.50;69.10;;;;;;5013173;28;20030;-56
2023/04/05 13:01:26;;;;;;;4.82;4.10;;;10.80;69.10;;;;;;5013214;28;20057;-57
2023/04/05 13:04:12;;;;;;;6.47;4.20;;;10.90;67.50;;;;;;4999717;28;20109;-57
2023/04/05 13:06:58;;;;;;;7.07;5.28;;;11.10;68.10;;;;;;5012523;28;20030;-55
2023/04/05 13:09:44;;;;;;;6.38;4.57;;;11.30;68.90;;;;;;5000071;28;20105;-55
2023/04/05 13:12:30;;;;;;;7.28;4.53;;;11.20;67.60;;;;;;5013260;28;20040;-57
2023/04/05 13:15:17;;;;;;;6.18;3.90;;;10.80;67.50;;;;;;5012337;28;20566;-53
2023/04/05 13:18:03;;;;;;;55.95;9.82;;;10.20;68.30;;;;;;5012872;28;20112;-57
2023/04/05 13:20:49;;;;;;;8.13;4.20;;;10.40;69.40;;;;;;5013281;28;20096;-56
2023/04/05 13:23:36;;;;;;;8.27;4.75;;;10.70;68.10;;;;;;5012546;28;20061;-58
2023/04/05 13:26:22;;;;;;;5.75;4.32;;;10.60;67.00;;;;;;5012379;28;20495;-57
2023/04/05 13:29:08;;;;;;;8.52;4.57;;;10.60;67.90;;;;;;4998168;28;20026;-56
2023/04/05 13:31:54;;;;;;;6.50;4.03;;;10.30;68.30;;;;;;5012269;28;20041;-56
2023/04/05 13:34:40;;;;;;;6.28;4.00;;;10.50;68.20;;;;;;5012778;28;20060;-55
2023/04/05 13:37:26;;;;;;;7.53;5.00;;;10.80;68.00;;;;;;5011688;28;20120;-58
2023/04/05 13:40:12;;;;;;;11.02;4.60;;;10.70;67.00;;;;;;5012693;28;20038;-56
2023/04/05 13:42:59;;;;;;;7.03;4.72;;;10.00;68.20;;;;;;5012289;28;20064;-53
2023/04/05 13:45:44;;;;;;;6.20;4.90;;;9.70;69.20;;;;;;5012944;28;20065;-51
2023/04/05 13:48:30;;;;;;;7.13;4.50;;;9.70;69.40;;;;;;5012760;28;20042;-54
2023/04/05 13:51:16;;;;;;;8.15;5.00;;;9.60;70.00;;;;;;5012206;28;20022;-57
2023/04/05 13:54:03;;;;;;;8.43;4.63;;;9.50;69.90;;;;;;4996612;28;20100;-57
2023/04/05 13:56:49;;;;;;;8.48;5.38;;;9.30;70.40;;;;;;5011735;28;20038;-59
2023/04/05 13:59:35;;;;;;;11.95;8.20;;;9.20;70.90;;;;;;4998029;28;20080;-55
2023/04/05 14:02:24;;;;;;;10.85;6.00;;;9.10;70.50;;;;;;4997945;28;20048;-56
2023/04/05 14:05:10;;;;;;;7.05;5.47;;;9.20;70.50;;;;;;5012289;28;20030;-54
2023/04/05 14:07:56;;;;;;;8.25;5.32;;;9.30;70.30;;;;;;5013074;28;20121;-52
2023/04/05 14:10:42;;;;;;;7.88;4.78;;;9.40;69.90;;;;;;4998489;28;20033;-53
2023/04/05 14:13:28;;;;;;;10.82;5.25;;;9.40;69.70;;;;;;4997701;28;20026;-57
2023/04/05 14:16:14;;;;;;;5.88;4.43;;;9.30;70.50;;;;;;4996407;28;20034;-53
2023/04/05 14:19:00;;;;;;;7.78;4.90;;;9.10;71.10;;;;;;5012152;28;20450;-59
2023/04/05 14:21:47;;;;;;;6.88;4.85;;;9.10;71.40;;;;;;5012600;28;20030;-55
2023/04/05 14:24:33;;;;;;;8.98;4.90;;;9.00;71.80;;;;;;5011635;28;20388;-53
2023/04/05 14:27:25;;;;;;;11.23;5.20;;;8.70;72.50;;;;;;4996689;28;20399;-56
2023/04/05 14:30:11;;;;;;;16.08;9.85;;;8.60;73.00;;;;;;4997818;28;20041;-55
2023/04/05 14:32:57;;;;;;;9.18;6.20;;;8.80;72.40;;;;;;5011324;28;20022;-55
2023/04/05 14:35:43;;;;;;;6.63;5.05;;;8.80;72.30;;;;;;5011680;28;20026;-54
2023/04/05 14:38:29;;;;;;;6.65;4.85;;;9.00;71.90;;;;;;5012120;28;20033;-50
2023/04/05 14:41:15;;;;;;;10.63;4.88;;;9.10;71.50;;;;;;5012607;28;20030;-51